PWSweather.com
Personal Weather Stations
Station Observations
QVALLEY1
Quail Valley, Overland Park, KS 66210

Quail ValleyOverland Park, KS 66210

Lat: 38.926, Lon: -94.684

Elevation: 1010

Station Type: Ambient Weather/WS 1400 IP

Latest ConditionsUpdated 11:44:08 AM CST Tuesday, Jan 22, 2019
Currently Today's Max Today's Min Today's Average
Temperature 39.4°F4.1°C 39.4°F4.1°C 33.3°F0.7°C 36.4°F2.4°C
Dew Point 39.4°F4.1°C 39.4°F4.1°C 23.3°F-4.8°C 30.4°F-0.9°C
Winds 3.8 mph SE6.1 kmh SE 11.4 mph -18.3 kmh - - 3.4 mph 5.5 kmh
Wind Gusts 5.6 mph9.0 kmh 14.3 mph23.0 kmh - -
Humidity 99% 99% 66% 79%
Pressure 29.80 in1009.1 mb 29.83 in1010.2 mb 29.79 in1008.8 mb -
Precipitation - 0.04 in1.0 mm - -
Hour Temp Dew Point Humidity Winds Wind Gusts Pressure Precip Precip Rate Daily Precip Total
11:44 AM 39.4°F4.1°C 39.4°F4.1°C 99% 3.8 mph SE6.1 kmh SE 5.6 mph9.0 kmh 29.80 in1009.1 mb 0.00 in0.0 mm 0.00 in0.0 mm 0.04 in1.0 mm
11:39 AM 39.4°F4.1°C 39.4°F4.1°C 99% 0.7 mph SE1.1 kmh SE 2.7 mph4.3 kmh 29.80 in1009.1 mb 0.07 in1.8 mm 0.00 in0.0 mm 0.04 in1.0 mm
11:34 AM 39.2°F4.0°C 39.2°F4.0°C 99% 1.3 mph SE2.1 kmh SE 2.7 mph4.3 kmh 29.81 in1009.5 mb 0.07 in1.8 mm 0.84 in21.3 mm 0.04 in1.0 mm
11:29 AM 39.2°F4.0°C 39.2°F4.0°C 99% 2.7 mph SE4.3 kmh SE 5.6 mph9.0 kmh 29.80 in1009.1 mb 0.00 in0.0 mm 0.00 in0.0 mm 0.02 in0.5 mm
11:24 AM 39.0°F3.9°C 39.0°F3.9°C 99% 0.7 mph SE1.1 kmh SE 2.7 mph4.3 kmh 29.80 in1009.1 mb 0.00 in0.0 mm 0.00 in0.0 mm 0.02 in0.5 mm
11:19 AM 39.0°F3.9°C 39.0°F3.9°C 99% 0.7 mph SE1.1 kmh SE 2.7 mph4.3 kmh 29.81 in1009.5 mb 0.00 in0.0 mm 0.00 in0.0 mm 0.02 in0.5 mm
11:14 AM 38.8°F3.8°C 38.8°F3.8°C 99% 3.6 mph SE5.8 kmh SE 5.6 mph9.0 kmh 29.81 in1009.5 mb 0.00 in0.0 mm 0.00 in0.0 mm 0.02 in0.5 mm
11:09 AM 38.8°F3.8°C 38.8°F3.8°C 99% 2.0 mph SE3.2 kmh SE 5.6 mph9.0 kmh 29.81 in1009.5 mb 0.00 in0.0 mm 0.00 in0.0 mm 0.02 in0.5 mm
11:04 AM 38.8°F3.8°C 38.8°F3.8°C 99% 3.6 mph SE5.8 kmh SE 5.6 mph9.0 kmh 29.81 in1009.5 mb 0.00 in0.0 mm 0.00 in0.0 mm 0.02 in0.5 mm
10:59 AM 38.8°F3.8°C 38.8°F3.8°C 99% 2.7 mph SE4.3 kmh SE 5.6 mph9.0 kmh 29.81 in1009.5 mb 0.00 in0.0 mm 0.00 in0.0 mm 0.02 in0.5 mm
10:54 AM 38.7°F3.7°C 38.7°F3.7°C 99% 1.8 mph SE2.9 kmh SE 2.7 mph4.3 kmh 29.81 in1009.5 mb 0.00 in0.0 mm 0.00 in0.0 mm 0.02 in0.5 mm
10:49 AM 38.7°F3.7°C 38.7°F3.7°C 99% 0.2 mph SE0.3 kmh SE 2.7 mph4.3 kmh 29.81 in1009.5 mb 0.00 in0.0 mm 0.00 in0.0 mm 0.02 in0.5 mm
10:44 AM 38.7°F3.7°C 38.7°F3.7°C 99% 2.0 mph SE3.2 kmh SE 2.7 mph4.3 kmh 29.81 in1009.5 mb 0.00 in0.0 mm 0.00 in0.0 mm 0.02 in0.5 mm
10:39 AM 38.7°F3.7°C 38.7°F3.7°C 99% 7.4 mph SE11.9 kmh SE 8.7 mph14.0 kmh 29.81 in1009.5 mb 0.07 in1.8 mm 0.00 in0.0 mm 0.02 in0.5 mm
10:34 AM 38.5°F3.6°C 38.5°F3.6°C 99% 6.3 mph SE10.1 kmh SE 8.7 mph14.0 kmh 29.81 in1009.5 mb 0.07 in1.8 mm 0.84 in21.3 mm 0.02 in0.5 mm
10:29 AM 38.5°F3.6°C 38.5°F3.6°C 99% 3.8 mph ESE6.1 kmh ESE 8.7 mph14.0 kmh 29.81 in1009.5 mb 0.00 in0.0 mm 0.00 in0.0 mm 0.01 in0.3 mm
10:24 AM 38.5°F3.6°C 38.5°F3.6°C 99% 4.3 mph SE6.9 kmh SE 5.6 mph9.0 kmh 29.81 in1009.5 mb 0.00 in0.0 mm 0.00 in0.0 mm 0.01 in0.3 mm
10:19 AM 38.5°F3.6°C 38.5°F3.6°C 99% 0.2 mph SE0.3 kmh SE 2.7 mph4.3 kmh 29.81 in1009.5 mb 0.00 in0.0 mm 0.00 in0.0 mm 0.01 in0.3 mm
10:14 AM 38.5°F3.6°C 38.5°F3.6°C 99% 0.7 mph SE1.1 kmh SE 2.7 mph4.3 kmh 29.81 in1009.5 mb 0.00 in0.0 mm 0.00 in0.0 mm 0.01 in0.3 mm
10:09 AM 38.5°F3.6°C 38.5°F3.6°C 99% 0.2 mph SE0.3 kmh SE 2.7 mph4.3 kmh 29.81 in1009.5 mb 0.00 in0.0 mm 0.00 in0.0 mm 0.01 in0.3 mm
10:04 AM 38.3°F3.5°C 38.3°F3.5°C 99% 2.0 mph SE3.2 kmh SE 5.6 mph9.0 kmh 29.81 in1009.5 mb 0.07 in1.8 mm 0.00 in0.0 mm 0.01 in0.3 mm
09:59 AM 38.3°F3.5°C 38.3°F3.5°C 99% 4.3 mph SE6.9 kmh SE 8.7 mph14.0 kmh 29.81 in1009.5 mb 0.07 in1.8 mm 0.84 in21.3 mm 0.01 in0.3 mm
09:54 AM 38.3°F3.5°C 37.8°F3.2°C 98% 3.6 mph SE5.8 kmh SE 5.6 mph9.0 kmh 29.81 in1009.5 mb 0.00 in0.0 mm 0.00 in0.0 mm 0.00 in0.0 mm
09:49 AM 38.3°F3.5°C 37.7°F3.2°C 98% 3.8 mph SE6.1 kmh SE 5.6 mph9.0 kmh 29.81 in1009.5 mb 0.00 in0.0 mm 0.00 in0.0 mm 0.00 in0.0 mm
09:44 AM 38.3°F3.5°C 37.5°F3.1°C 97% 1.3 mph SE2.1 kmh SE 2.7 mph4.3 kmh 29.81 in1009.5 mb 0.00 in0.0 mm 0.00 in0.0 mm 0.00 in0.0 mm
09:39 AM 38.1°F3.4°C 37.3°F2.9°C 97% 8.1 mph SE13.0 kmh SE 11.4 mph18.3 kmh 29.81 in1009.5 mb 0.00 in0.0 mm 0.00 in0.0 mm 0.00 in0.0 mm
09:34 AM 38.1°F3.4°C 37.2°F2.9°C 97% 5.6 mph SE9.0 kmh SE 8.7 mph14.0 kmh 29.81 in1009.5 mb 0.00 in0.0 mm 0.00 in0.0 mm 0.00 in0.0 mm
09:29 AM 38.1°F3.4°C 37.0°F2.8°C 96% 2.7 mph SE4.3 kmh SE 5.6 mph9.0 kmh 29.80 in1009.1 mb 0.00 in0.0 mm 0.00 in0.0 mm 0.00 in0.0 mm
09:24 AM 38.1°F3.4°C 36.8°F2.7°C 96% 0.9 mph SE1.4 kmh SE 2.7 mph4.3 kmh 29.81 in1009.5 mb 0.00 in0.0 mm 0.00 in0.0 mm 0.00 in0.0 mm
09:19 AM 37.9°F3.3°C 36.6°F2.6°C 95% 3.1 mph SE5.0 kmh SE 5.6 mph9.0 kmh 29.80 in1009.1 mb 0.00 in0.0 mm 0.00 in0.0 mm 0.00 in0.0 mm
09:14 AM 37.9°F3.3°C 36.5°F2.5°C 95% 2.0 mph SE3.2 kmh SE 5.6 mph9.0 kmh 29.80 in1009.1 mb 0.00 in0.0 mm 0.00 in0.0 mm 0.00 in0.0 mm
09:09 AM 37.9°F3.3°C 36.3°F2.4°C 94% 2.7 mph SE4.3 kmh SE 5.6 mph9.0 kmh 29.80 in1009.1 mb 0.00 in0.0 mm 0.00 in0.0 mm 0.00 in0.0 mm
09:04 AM 37.9°F3.3°C 36.3°F2.4°C 94% 0.9 mph SE1.4 kmh SE 2.7 mph4.3 kmh 29.81 in1009.5 mb 0.00 in0.0 mm 0.00 in0.0 mm 0.00 in0.0 mm
08:59 AM 37.9°F3.3°C 36.2°F2.3°C 93% 2.7 mph ESE4.3 kmh ESE 2.7 mph4.3 kmh 29.80 in1009.1 mb 0.00 in0.0 mm 0.00 in0.0 mm 0.00 in0.0 mm
08:54 AM 37.9°F3.3°C 36.1°F2.3°C 93% 8.1 mph SE13.0 kmh SE 11.4 mph18.3 kmh 29.80 in1009.1 mb 0.00 in0.0 mm 0.00 in0.0 mm 0.00 in0.0 mm
08:49 AM 37.9°F3.3°C 36.0°F2.2°C 92% 3.1 mph SE5.0 kmh SE 5.6 mph9.0 kmh 29.80 in1009.1 mb 0.00 in0.0 mm 0.00 in0.0 mm 0.00 in0.0 mm
08:44 AM 38.1°F3.4°C 35.7°F2.1°C 91% 2.5 mph SE4.0 kmh SE 2.7 mph4.3 kmh 29.80 in1009.1 mb 0.00 in0.0 mm 0.00 in0.0 mm 0.00 in0.0 mm
08:39 AM 38.1°F3.4°C 35.4°F1.9°C 89% 1.8 mph SE2.9 kmh SE 2.7 mph4.3 kmh 29.80 in1009.1 mb 0.00 in0.0 mm 0.00 in0.0 mm 0.00 in0.0 mm
08:34 AM 38.3°F3.5°C 35.2°F1.8°C 88% 3.6 mph SE5.8 kmh SE 5.6 mph9.0 kmh 29.81 in1009.5 mb 0.00 in0.0 mm 0.00 in0.0 mm 0.00 in0.0 mm
08:29 AM 38.5°F3.6°C 34.8°F1.6°C 86% 4.5 mph ESE7.2 kmh ESE 5.6 mph9.0 kmh 29.81 in1009.5 mb 0.00 in0.0 mm 0.00 in0.0 mm 0.00 in0.0 mm
08:24 AM 38.5°F3.6°C 34.4°F1.3°C 85% Calm Calm -- 29.81 in1009.5 mb 0.00 in0.0 mm 0.00 in0.0 mm 0.00 in0.0 mm
08:19 AM 38.5°F3.6°C 34.2°F1.2°C 84% 3.6 mph SE5.8 kmh SE 5.6 mph9.0 kmh 29.81 in1009.5 mb 0.00 in0.0 mm 0.00 in0.0 mm 0.00 in0.0 mm
08:14 AM 38.5°F3.6°C 34.0°F1.1°C 84% 7.4 mph SE11.9 kmh SE 11.4 mph18.3 kmh 29.81 in1009.5 mb 0.00 in0.0 mm 0.00 in0.0 mm 0.00 in0.0 mm
08:09 AM 38.5°F3.6°C 33.7°F0.9°C 83% 1.8 mph SE2.9 kmh SE 2.7 mph4.3 kmh 29.81 in1009.5 mb 0.00 in0.0 mm 0.00 in0.0 mm 0.00 in0.0 mm
08:04 AM 38.5°F3.6°C 33.6°F0.9°C 83% 4.5 mph SE7.2 kmh SE 5.6 mph9.0 kmh 29.81 in1009.5 mb 0.00 in0.0 mm 0.00 in0.0 mm 0.00 in0.0 mm
07:59 AM 38.3°F3.5°C 33.6°F0.9°C 83% 6.0 mph ESE9.7 kmh ESE 8.7 mph14.0 kmh 29.81 in1009.5 mb 0.00 in0.0 mm 0.00 in0.0 mm 0.00 in0.0 mm
07:54 AM 38.3°F3.5°C 33.3°F0.7°C 82% 3.6 mph ESE5.8 kmh ESE 5.6 mph9.0 kmh 29.81 in1009.5 mb 0.00 in0.0 mm 0.00 in0.0 mm 0.00 in0.0 mm
07:49 AM 38.1°F3.4°C 33.1°F0.6°C 82% 11.4 mph SE18.3 kmh SE 14.3 mph23.0 kmh 29.81 in1009.5 mb 0.00 in0.0 mm 0.00 in0.0 mm 0.00 in0.0 mm
07:44 AM 38.1°F3.4°C 33.0°F0.6°C 82% 0.9 mph SE1.4 kmh SE 2.7 mph4.3 kmh 29.81 in1009.5 mb 0.00 in0.0 mm 0.00 in0.0 mm 0.00 in0.0 mm
07:39 AM 38.1°F3.4°C 32.8°F0.4°C 81% 6.0 mph SE9.7 kmh SE 8.7 mph14.0 kmh 29.80 in1009.1 mb 0.00 in0.0 mm 0.00 in0.0 mm 0.00 in0.0 mm
07:34 AM 38.1°F3.4°C 32.6°F0.3°C 81% 2.5 mph SE4.0 kmh SE 2.7 mph4.3 kmh 29.80 in1009.1 mb 0.00 in0.0 mm 0.00 in0.0 mm 0.00 in0.0 mm
07:29 AM 37.9°F3.3°C 32.6°F0.3°C 81% 1.8 mph ESE2.9 kmh ESE 2.7 mph4.3 kmh 29.80 in1009.1 mb 0.00 in0.0 mm 0.00 in0.0 mm 0.00 in0.0 mm
07:24 AM 37.9°F3.3°C 32.5°F0.3°C 81% 3.6 mph ESE5.8 kmh ESE 8.7 mph14.0 kmh 29.80 in1009.1 mb 0.00 in0.0 mm 0.00 in0.0 mm 0.00 in0.0 mm
07:19 AM 37.8°F3.2°C 32.5°F0.3°C 81% 2.0 mph ESE3.2 kmh ESE 5.6 mph9.0 kmh 29.80 in1009.1 mb 0.00 in0.0 mm 0.00 in0.0 mm 0.00 in0.0 mm
07:14 AM 37.8°F3.2°C 32.2°F0.1°C 80% Calm Calm -- 29.80 in1009.1 mb 0.00 in0.0 mm 0.00 in0.0 mm 0.00 in0.0 mm
07:09 AM 37.6°F3.1°C 32.1°F0.1°C 80% 4.3 mph SE6.9 kmh SE 8.7 mph14.0 kmh 29.79 in1008.8 mb 0.00 in0.0 mm 0.00 in0.0 mm 0.00 in0.0 mm
07:04 AM 37.6°F3.1°C 32.1°F0.1°C 81% 5.6 mph SE9.0 kmh SE 8.7 mph14.0 kmh 29.79 in1008.8 mb 0.00 in0.0 mm 0.00 in0.0 mm 0.00 in0.0 mm
06:59 AM 37.4°F3.0°C 31.9°F-0.1°C 80% 2.7 mph ESE4.3 kmh ESE 8.7 mph14.0 kmh 29.79 in1008.8 mb 0.00 in0.0 mm 0.00 in0.0 mm 0.00 in0.0 mm
06:54 AM 37.4°F3.0°C 31.8°F-0.1°C 80% 9.2 mph SE14.8 kmh SE 11.4 mph18.3 kmh 29.79 in1008.8 mb 0.00 in0.0 mm 0.00 in0.0 mm 0.00 in0.0 mm
06:49 AM 37.4°F3.0°C 31.5°F-0.3°C 79% 4.5 mph ESE7.2 kmh ESE 5.6 mph9.0 kmh 29.79 in1008.8 mb 0.00 in0.0 mm 0.00 in0.0 mm 0.00 in0.0 mm
06:44 AM 37.2°F2.9°C 31.2°F-0.4°C 79% 9.6 mph ESE15.4 kmh ESE 11.4 mph18.3 kmh 29.79 in1008.8 mb 0.00 in0.0 mm 0.00 in0.0 mm 0.00 in0.0 mm
06:39 AM 37.2°F2.9°C 31.0°F-0.6°C 78% 3.1 mph ESE5.0 kmh ESE 5.6 mph9.0 kmh 29.79 in1008.8 mb 0.00 in0.0 mm 0.00 in0.0 mm 0.00 in0.0 mm
06:34 AM 37.2°F2.9°C 30.9°F-0.6°C 78% 0.9 mph ESE1.4 kmh ESE 2.7 mph4.3 kmh 29.79 in1008.8 mb 0.00 in0.0 mm 0.00 in0.0 mm 0.00 in0.0 mm
06:29 AM 37.0°F2.8°C 30.6°F-0.8°C 78% 0.9 mph ESE1.4 kmh ESE 2.7 mph4.3 kmh 29.79 in1008.8 mb 0.00 in0.0 mm 0.00 in0.0 mm 0.00 in0.0 mm
06:24 AM 37.0°F2.8°C 30.4°F-0.9°C 77% 2.5 mph ESE4.0 kmh ESE 5.6 mph9.0 kmh 29.80 in1009.1 mb 0.00 in0.0 mm 0.00 in0.0 mm 0.00 in0.0 mm
06:19 AM 36.9°F2.7°C 30.4°F-0.9°C 77% 0.7 mph ESE1.1 kmh ESE 2.7 mph4.3 kmh 29.80 in1009.1 mb 0.00 in0.0 mm 0.00 in0.0 mm 0.00 in0.0 mm
06:14 AM 36.9°F2.7°C 30.3°F-0.9°C 77% 4.5 mph ESE7.2 kmh ESE 5.6 mph9.0 kmh 29.80 in1009.1 mb 0.00 in0.0 mm 0.00 in0.0 mm 0.00 in0.0 mm
06:09 AM 36.9°F2.7°C 30.1°F-1.1°C 77% 3.1 mph ESE5.0 kmh ESE 5.6 mph9.0 kmh 29.80 in1009.1 mb 0.00 in0.0 mm 0.00 in0.0 mm 0.00 in0.0 mm
06:04 AM 36.7°F2.6°C 29.9°F-1.2°C 76% 3.6 mph ESE5.8 kmh ESE 5.6 mph9.0 kmh 29.80 in1009.1 mb 0.00 in0.0 mm 0.00 in0.0 mm 0.00 in0.0 mm
05:59 AM 36.7°F2.6°C 29.8°F-1.2°C 76% 1.3 mph SE2.1 kmh SE 2.7 mph4.3 kmh 29.80 in1009.1 mb 0.00 in0.0 mm 0.00 in0.0 mm 0.00 in0.0 mm
05:54 AM 36.7°F2.6°C 29.7°F-1.3°C 76% 4.3 mph SE6.9 kmh SE 5.6 mph9.0 kmh 29.81 in1009.5 mb 0.00 in0.0 mm 0.00 in0.0 mm 0.00 in0.0 mm
05:49 AM 36.5°F2.5°C 29.7°F-1.3°C 76% Calm Calm -- 29.81 in1009.5 mb 0.00 in0.0 mm 0.00 in0.0 mm 0.00 in0.0 mm
05:44 AM 36.5°F2.5°C 29.7°F-1.3°C 76% 0.2 mph SE0.3 kmh SE 2.7 mph4.3 kmh 29.80 in1009.1 mb 0.00 in0.0 mm 0.00 in0.0 mm 0.00 in0.0 mm
05:39 AM 36.5°F2.5°C 29.6°F-1.3°C 76% Calm Calm -- 29.80 in1009.1 mb 0.00 in0.0 mm 0.00 in0.0 mm 0.00 in0.0 mm
05:34 AM 36.3°F2.4°C 29.5°F-1.4°C 76% 3.8 mph SE6.1 kmh SE 5.6 mph9.0 kmh 29.81 in1009.5 mb 0.00 in0.0 mm 0.00 in0.0 mm 0.00 in0.0 mm
05:29 AM 36.3°F2.4°C 29.4°F-1.4°C 76% Calm Calm -- 29.80 in1009.1 mb 0.00 in0.0 mm 0.00 in0.0 mm 0.00 in0.0 mm
05:24 AM 36.1°F2.3°C 29.3°F-1.5°C 76% 4.5 mph ESE7.2 kmh ESE 8.7 mph14.0 kmh 29.80 in1009.1 mb 0.00 in0.0 mm 0.00 in0.0 mm 0.00 in0.0 mm
05:19 AM 36.1°F2.3°C 29.2°F-1.6°C 76% 1.3 mph ESE2.1 kmh ESE 2.7 mph4.3 kmh 29.80 in1009.1 mb 0.00 in0.0 mm 0.00 in0.0 mm 0.00 in0.0 mm
05:14 AM 36.0°F2.2°C 29.1°F-1.6°C 76% Calm Calm -- 29.80 in1009.1 mb 0.00 in0.0 mm 0.00 in0.0 mm 0.00 in0.0 mm
05:09 AM 36.0°F2.2°C 28.8°F-1.8°C 75% 0.2 mph ESE0.3 kmh ESE 2.7 mph4.3 kmh 29.80 in1009.1 mb 0.00 in0.0 mm 0.00 in0.0 mm 0.00 in0.0 mm
05:04 AM 35.8°F2.1°C 28.4°F-2.0°C 74% Calm Calm -- 29.80 in1009.1 mb 0.00 in0.0 mm 0.00 in0.0 mm 0.00 in0.0 mm
04:59 AM 35.8°F2.1°C 27.9°F-2.3°C 73% 5.1 mph ESE8.2 kmh ESE 8.7 mph14.0 kmh 29.79 in1008.8 mb 0.00 in0.0 mm 0.00 in0.0 mm 0.00 in0.0 mm
04:54 AM 35.6°F2.0°C 27.2°F-2.7°C 72% 0.2 mph ESE0.3 kmh ESE 2.7 mph4.3 kmh 29.80 in1009.1 mb 0.00 in0.0 mm 0.00 in0.0 mm 0.00 in0.0 mm
04:49 AM 35.6°F2.0°C 26.9°F-2.8°C 71% 5.1 mph ESE8.2 kmh ESE 5.6 mph9.0 kmh 29.79 in1008.8 mb 0.00 in0.0 mm 0.00 in0.0 mm 0.00 in0.0 mm
04:44 AM 35.4°F1.9°C 26.8°F-2.9°C 71% 3.6 mph SE5.8 kmh SE 5.6 mph9.0 kmh 29.79 in1008.8 mb 0.00 in0.0 mm 0.00 in0.0 mm 0.00 in0.0 mm
04:39 AM 35.4°F1.9°C 26.7°F-2.9°C 71% 1.3 mph ESE2.1 kmh ESE 2.7 mph4.3 kmh 29.79 in1008.8 mb 0.00 in0.0 mm 0.00 in0.0 mm 0.00 in0.0 mm
04:34 AM 35.2°F1.8°C 26.7°F-2.9°C 71% 3.8 mph E6.1 kmh E 5.6 mph9.0 kmh 29.79 in1008.8 mb 0.00 in0.0 mm 0.00 in0.0 mm 0.00 in0.0 mm
04:29 AM 35.2°F1.8°C 26.6°F-3.0°C 71% 3.6 mph E5.8 kmh E 5.6 mph9.0 kmh 29.79 in1008.8 mb 0.00 in0.0 mm 0.00 in0.0 mm 0.00 in0.0 mm
04:24 AM 35.1°F1.7°C 26.6°F-3.0°C 71% 0.7 mph ESE1.1 kmh ESE 2.7 mph4.3 kmh 29.79 in1008.8 mb 0.00 in0.0 mm 0.00 in0.0 mm 0.00 in0.0 mm
04:19 AM 35.1°F1.7°C 26.5°F-3.1°C 71% 0.2 mph SE0.3 kmh SE 2.7 mph4.3 kmh 29.79 in1008.8 mb 0.00 in0.0 mm 0.00 in0.0 mm 0.00 in0.0 mm
04:14 AM 34.9°F1.6°C 26.4°F-3.1°C 71% 2.5 mph SE4.0 kmh SE 2.7 mph4.3 kmh 29.79 in1008.8 mb 0.00 in0.0 mm 0.00 in0.0 mm 0.00 in0.0 mm
04:09 AM 34.9°F1.6°C 26.3°F-3.2°C 71% 0.9 mph SE1.4 kmh SE 2.7 mph4.3 kmh 29.79 in1008.8 mb 0.00 in0.0 mm 0.00 in0.0 mm 0.00 in0.0 mm
04:04 AM 34.9°F1.6°C 26.2°F-3.2°C 70% 2.5 mph ESE4.0 kmh ESE 5.6 mph9.0 kmh 29.79 in1008.8 mb 0.00 in0.0 mm 0.00 in0.0 mm 0.00 in0.0 mm
03:59 AM 34.9°F1.6°C 26.1°F-3.3°C 70% 0.2 mph ESE0.3 kmh ESE 2.7 mph4.3 kmh 29.79 in1008.8 mb 0.00 in0.0 mm 0.00 in0.0 mm 0.00 in0.0 mm
03:54 AM 34.9°F1.6°C 26.1°F-3.3°C 70% 6.9 mph ESE11.1 kmh ESE 8.7 mph14.0 kmh 29.79 in1008.8 mb 0.00 in0.0 mm 0.00 in0.0 mm 0.00 in0.0 mm
03:49 AM 34.9°F1.6°C 25.9°F-3.4°C 70% 0.7 mph SE1.1 kmh SE 2.7 mph4.3 kmh 29.79 in1008.8 mb 0.00 in0.0 mm 0.00 in0.0 mm 0.00 in0.0 mm
03:44 AM 34.9°F1.6°C 25.8°F-3.4°C 69% 1.3 mph ESE2.1 kmh ESE 2.7 mph4.3 kmh 29.79 in1008.8 mb 0.00 in0.0 mm 0.00 in0.0 mm 0.00 in0.0 mm
03:39 AM 34.9°F1.6°C 25.8°F-3.4°C 69% 6.0 mph ESE9.7 kmh ESE 8.7 mph14.0 kmh 29.79 in1008.8 mb 0.00 in0.0 mm 0.00 in0.0 mm 0.00 in0.0 mm
03:34 AM 34.9°F1.6°C 25.7°F-3.5°C 69% Calm Calm -- 29.79 in1008.8 mb 0.00 in0.0 mm 0.00 in0.0 mm 0.00 in0.0 mm
03:29 AM 34.9°F1.6°C 25.5°F-3.6°C 68% 1.8 mph SE2.9 kmh SE 2.7 mph4.3 kmh 29.79 in1008.8 mb 0.00 in0.0 mm 0.00 in0.0 mm 0.00 in0.0 mm
03:24 AM 34.9°F1.6°C 25.2°F-3.8°C 68% 4.5 mph ESE7.2 kmh ESE 8.7 mph14.0 kmh 29.79 in1008.8 mb 0.00 in0.0 mm 0.00 in0.0 mm 0.00 in0.0 mm
03:19 AM 34.7°F1.5°C 25.2°F-3.8°C 68% 8.1 mph SE13.0 kmh SE 11.4 mph18.3 kmh 29.79 in1008.8 mb 0.00 in0.0 mm 0.00 in0.0 mm 0.00 in0.0 mm
03:14 AM 34.7°F1.5°C 25.1°F-3.8°C 68% 2.5 mph SE4.0 kmh SE 2.7 mph4.3 kmh 29.80 in1009.1 mb 0.00 in0.0 mm 0.00 in0.0 mm 0.00 in0.0 mm
03:09 AM 34.5°F1.4°C 25.0°F-3.9°C 68% 2.7 mph SE4.3 kmh SE 5.6 mph9.0 kmh 29.80 in1009.1 mb 0.00 in0.0 mm 0.00 in0.0 mm 0.00 in0.0 mm
03:04 AM 34.5°F1.4°C 25.0°F-3.9°C 68% 7.8 mph SE12.6 kmh SE 8.7 mph14.0 kmh 29.80 in1009.1 mb 0.00 in0.0 mm 0.00 in0.0 mm 0.00 in0.0 mm
02:59 AM 34.5°F1.4°C 24.9°F-3.9°C 68% 3.6 mph SE5.8 kmh SE 5.6 mph9.0 kmh 29.80 in1009.1 mb 0.00 in0.0 mm 0.00 in0.0 mm 0.00 in0.0 mm
02:54 AM 34.5°F1.4°C 24.7°F-4.1°C 67% 3.6 mph SE5.8 kmh SE 5.6 mph9.0 kmh 29.80 in1009.1 mb 0.00 in0.0 mm 0.00 in0.0 mm 0.00 in0.0 mm
02:49 AM 34.3°F1.3°C 24.5°F-4.2°C 67% 0.2 mph SE0.3 kmh SE 2.7 mph4.3 kmh 29.80 in1009.1 mb 0.00 in0.0 mm 0.00 in0.0 mm 0.00 in0.0 mm
02:44 AM 34.3°F1.3°C 24.5°F-4.2°C 67% 0.9 mph SE1.4 kmh SE 2.7 mph4.3 kmh 29.80 in1009.1 mb 0.00 in0.0 mm 0.00 in0.0 mm 0.00 in0.0 mm
02:39 AM 34.3°F1.3°C 24.5°F-4.2°C 67% 0.9 mph SE1.4 kmh SE 2.7 mph4.3 kmh 29.81 in1009.5 mb 0.00 in0.0 mm 0.00 in0.0 mm 0.00 in0.0 mm
02:34 AM 34.3°F1.3°C 24.4°F-4.2°C 67% 3.1 mph SE5.0 kmh SE 5.6 mph9.0 kmh 29.80 in1009.1 mb 0.00 in0.0 mm 0.00 in0.0 mm 0.00 in0.0 mm
02:29 AM 34.2°F1.2°C 24.4°F-4.2°C 67% 6.0 mph SE9.7 kmh SE 8.7 mph14.0 kmh 29.80 in1009.1 mb 0.00 in0.0 mm 0.00 in0.0 mm 0.00 in0.0 mm
02:24 AM 34.2°F1.2°C 24.4°F-4.2°C 67% 6.3 mph SE10.1 kmh SE 11.4 mph18.3 kmh 29.80 in1009.1 mb 0.00 in0.0 mm 0.00 in0.0 mm 0.00 in0.0 mm
02:19 AM 34.2°F1.2°C 24.4°F-4.2°C 67% 4.5 mph SE7.2 kmh SE 8.7 mph14.0 kmh 29.79 in1008.8 mb 0.00 in0.0 mm 0.00 in0.0 mm 0.00 in0.0 mm
02:14 AM 34.0°F1.1°C 24.4°F-4.2°C 68% 5.6 mph SE9.0 kmh SE 11.4 mph18.3 kmh 29.79 in1008.8 mb 0.00 in0.0 mm 0.00 in0.0 mm 0.00 in0.0 mm
02:09 AM 34.0°F1.1°C 24.5°F-4.2°C 68% 6.3 mph SE10.1 kmh SE 8.7 mph14.0 kmh 29.79 in1008.8 mb 0.00 in0.0 mm 0.00 in0.0 mm 0.00 in0.0 mm
02:04 AM 34.0°F1.1°C 24.5°F-4.2°C 68% 2.5 mph SE4.0 kmh SE 5.6 mph9.0 kmh 29.79 in1008.8 mb 0.00 in0.0 mm 0.00 in0.0 mm 0.00 in0.0 mm
01:59 AM 34.0°F1.1°C 24.5°F-4.2°C 68% 4.3 mph ESE6.9 kmh ESE 8.7 mph14.0 kmh 29.79 in1008.8 mb 0.00 in0.0 mm 0.00 in0.0 mm 0.00 in0.0 mm
01:54 AM 34.0°F1.1°C 24.4°F-4.2°C 68% 5.6 mph ESE9.0 kmh ESE 11.4 mph18.3 kmh 29.80 in1009.1 mb 0.00 in0.0 mm 0.00 in0.0 mm 0.00 in0.0 mm
01:49 AM 34.0°F1.1°C 24.3°F-4.3°C 67% 4.5 mph SE7.2 kmh SE 5.6 mph9.0 kmh 29.80 in1009.1 mb 0.00 in0.0 mm 0.00 in0.0 mm 0.00 in0.0 mm
01:44 AM 34.0°F1.1°C 24.2°F-4.3°C 67% 3.6 mph SE5.8 kmh SE 5.6 mph9.0 kmh 29.80 in1009.1 mb 0.00 in0.0 mm 0.00 in0.0 mm 0.00 in0.0 mm
01:39 AM 34.0°F1.1°C 24.1°F-4.4°C 67% 7.2 mph SE11.6 kmh SE 14.3 mph23.0 kmh 29.80 in1009.1 mb 0.00 in0.0 mm 0.00 in0.0 mm 0.00 in0.0 mm
01:34 AM 33.8°F1.0°C 24.0°F-4.4°C 67% 2.7 mph SE4.3 kmh SE 2.7 mph4.3 kmh 29.80 in1009.1 mb 0.00 in0.0 mm 0.00 in0.0 mm 0.00 in0.0 mm
01:29 AM 33.8°F1.0°C 24.0°F-4.4°C 67% 2.5 mph SE4.0 kmh SE 2.7 mph4.3 kmh 29.80 in1009.1 mb 0.00 in0.0 mm 0.00 in0.0 mm 0.00 in0.0 mm
01:24 AM 33.8°F1.0°C 24.0°F-4.4°C 67% 2.7 mph SE4.3 kmh SE 5.6 mph9.0 kmh 29.81 in1009.5 mb 0.00 in0.0 mm 0.00 in0.0 mm 0.00 in0.0 mm
01:19 AM 33.8°F1.0°C 24.0°F-4.4°C 67% 5.1 mph SE8.2 kmh SE 5.6 mph9.0 kmh 29.81 in1009.5 mb 0.00 in0.0 mm 0.00 in0.0 mm 0.00 in0.0 mm
01:14 AM 33.8°F1.0°C 24.0°F-4.4°C 67% 10.7 mph SE17.2 kmh SE 14.3 mph23.0 kmh 29.81 in1009.5 mb 0.00 in0.0 mm 0.00 in0.0 mm 0.00 in0.0 mm
01:09 AM 33.8°F1.0°C 23.9°F-4.5°C 67% 2.7 mph SE4.3 kmh SE 5.6 mph9.0 kmh 29.81 in1009.5 mb 0.00 in0.0 mm 0.00 in0.0 mm 0.00 in0.0 mm
01:04 AM 33.8°F1.0°C 23.7°F-4.6°C 66% 5.6 mph SE9.0 kmh SE 8.7 mph14.0 kmh 29.81 in1009.5 mb 0.00 in0.0 mm 0.00 in0.0 mm 0.00 in0.0 mm
12:59 AM 33.8°F1.0°C 23.6°F-4.7°C 66% 2.0 mph ESE3.2 kmh ESE 5.6 mph9.0 kmh 29.81 in1009.5 mb 0.00 in0.0 mm 0.00 in0.0 mm 0.00 in0.0 mm
12:54 AM 33.8°F1.0°C 23.5°F-4.7°C 66% 11.4 mph SE18.3 kmh SE 14.3 mph23.0 kmh 29.81 in1009.5 mb 0.00 in0.0 mm 0.00 in0.0 mm 0.00 in0.0 mm
12:49 AM 33.8°F1.0°C 23.4°F-4.8°C 66% 0.7 mph SE1.1 kmh SE 2.7 mph4.3 kmh 29.82 in1009.8 mb 0.00 in0.0 mm 0.00 in0.0 mm 0.00 in0.0 mm
12:44 AM 33.6°F0.9°C 23.4°F-4.8°C 66% 0.2 mph SE0.3 kmh SE 2.7 mph4.3 kmh 29.82 in1009.8 mb 0.00 in0.0 mm 0.00 in0.0 mm 0.00 in0.0 mm
12:39 AM 33.6°F0.9°C 23.4°F-4.8°C 66% 9.8 mph SE15.8 kmh SE 11.4 mph18.3 kmh 29.82 in1009.8 mb 0.00 in0.0 mm 0.00 in0.0 mm 0.00 in0.0 mm
12:34 AM 33.6°F0.9°C 23.4°F-4.8°C 66% 8.7 mph SE14.0 kmh SE 11.4 mph18.3 kmh 29.82 in1009.8 mb 0.00 in0.0 mm 0.00 in0.0 mm 0.00 in0.0 mm
12:29 AM 33.4°F0.8°C 23.4°F-4.8°C 66% 5.6 mph SE9.0 kmh SE 11.4 mph18.3 kmh 29.83 in1010.2 mb 0.00 in0.0 mm 0.00 in0.0 mm 0.00 in0.0 mm
12:24 AM 33.4°F0.8°C 23.3°F-4.8°C 66% 10.7 mph ESE17.2 kmh ESE 14.3 mph23.0 kmh 29.83 in1010.2 mb 0.00 in0.0 mm 0.00 in0.0 mm 0.00 in0.0 mm
12:19 AM 33.4°F0.8°C 23.3°F-4.8°C 66% 2.5 mph ESE4.0 kmh ESE 2.7 mph4.3 kmh 29.83 in1010.2 mb 0.00 in0.0 mm 0.00 in0.0 mm 0.00 in0.0 mm
12:14 AM 33.4°F0.8°C 23.3°F-4.8°C 66% 0.7 mph SE1.1 kmh SE 2.7 mph4.3 kmh 29.83 in1010.2 mb 0.00 in0.0 mm 0.00 in0.0 mm 0.00 in0.0 mm
12:09 AM 33.3°F0.7°C 23.5°F-4.7°C 67% 11.0 mph SE17.7 kmh SE 14.3 mph23.0 kmh 29.83 in1010.2 mb 0.00 in0.0 mm 0.00 in0.0 mm 0.00 in0.0 mm
12:04 AM 33.3°F0.7°C 23.5°F-4.7°C 67% 4.5 mph ESE7.2 kmh ESE 5.6 mph9.0 kmh 29.83 in1010.2 mb 0.00 in0.0 mm 0.00 in0.0 mm 0.00 in0.0 mm